Flight Track Log - Related Links

Times and Time Zones

All times are in EDT time to prevent confusion due to time zone crossing. See the SWA208 flight status page for this flight to view local times or setup timezone preferences in your user account.

Time Position Orientation Groundspeed Altitude Reporting Facility
EDT Latitude Longitude Course Direction KTS MPH feet Rate Location/Type
Wed 07:37:29 PM 33.4333 -112.0333 250° West 163 188 2,000  Level Phoenix TRACON
Wed 07:39:04 PM 33.4014 -112.1378 250° West 232 267 4,200 1,808 Climbing Albuquerque Center
Wed 07:40:05 PM 33.3808 -112.2247 254° West 265 305 6,700 2,488 Climbing Albuquerque Center
Wed 07:41:07 PM 33.3925 -112.3183 279° West 282 325 9,300 2,585 Climbing Albuquerque Center
Wed 07:42:08 PM 33.4050 -112.4206 278° West 308 354 12,000 2,829 Climbing Albuquerque Center
Wed 07:43:10 PM 33.4175 -112.5264 278° West 320 368 15,100 3,171 Climbing Albuquerque Center
Wed 07:44:11 PM 33.4325 -112.6506 278° West 330 380 18,500 2,976 Climbing Albuquerque Center
Wed 07:45:13 PM 33.4469 -112.7656 279° West 344 396 21,200 2,488 Climbing Albuquerque Center
Wed 07:46:14 PM 33.4639 -112.8842 280° West 357 411 23,600 2,244 Climbing Albuquerque Center
Wed 07:47:16 PM 33.4881 -113.0039 284° West 366 421 25,800 1,415 Climbing Albuquerque Center
Wed 07:48:17 PM 33.5142 -113.1361 283° West 401 461 26,500 1,171 Climbing Albuquerque Center
Wed 07:49:19 PM 33.5403 -113.2778 283° West 431 496 28,200 1,561 Climbing Albuquerque Center
Wed 07:50:20 PM 33.5681 -113.4250 283° West 447 514 29,700 1,659 Climbing Albuquerque Center
Wed 07:51:22 PM 33.6019 -113.6056 283° West 461 531 31,600 1,902 Climbing Albuquerque Center
Wed 07:52:23 PM 33.6281 -113.7444 283° West 468 539 33,600 2,049 Climbing Albuquerque Center
Wed 07:53:25 PM 33.6542 -113.8908 282° West 456 525 35,800 2,000 Climbing Albuquerque Center
Wed 07:54:26 PM 33.6806 -114.0314 283° West 440 506 37,700 1,805 Climbing Albuquerque Center
Wed 07:55:28 PM 33.7108 -114.1978 282° West 428 493 39,500 1,015 Climbing Albuquerque Center
Wed 07:56:42 PM 33.7394 -114.3508 283° West 421 484 40,000 221 Climbing Los Angeles Center
Wed 07:57:44 PM 33.7633 -114.4881 282° West 421 484 40,000  Level Los Angeles Center
Wed 07:58:46 PM 33.7794 -114.6256 278° West 418 481 40,000  Level Los Angeles Center
Wed 07:59:48 PM 33.7881 -114.7906 274° West 414 476 40,000  Level Los Angeles Center
Wed 08:00:50 PM 33.7967 -114.9289 274° West 416 479 40,000  Level Los Angeles Center
Wed 08:01:52 PM 33.8033 -115.0644 273° West 410 472 40,000  Level Los Angeles Center
Wed 08:02:54 PM 33.8111 -115.2033 274° West 416 479 40,000  Level Los Angeles Center
Wed 08:03:57 PM 33.8183 -115.3400 274° West 412 474 40,000  Level Los Angeles Center
Wed 08:05:11 PM 33.8394 -115.5314 278° West 417 480 40,000  Level Los Angeles Center
Wed 08:06:25 PM 33.8619 -115.6689 281° West 421 484 40,000  Level Los Angeles Center
Wed 08:07:28 PM 33.8889 -115.8339 281° West 422 486 40,000  Level Los Angeles Center
Wed 08:08:30 PM 33.9231 -115.9647 288° West 415 478 40,000  Level Los Angeles Center
Wed 08:09:44 PM 33.9694 -116.0956 293° West 423 487 40,000  Level Los Angeles Center
Wed 08:10:46 PM 34.0328 -116.2806 292° West 427 491 40,000  Level Los Angeles Center
Wed 08:11:48 PM 34.0781 -116.4125 293° West 427 491 40,000  Level Los Angeles Center
Wed 08:12:50 PM 34.1233 -116.5436 293° West 426 490 40,000  Level Los Angeles Center
Wed 08:13:53 PM 34.1667 -116.6692 293° West 428 493 40,000  Level Los Angeles Center
Wed 08:14:55 PM 34.2200 -116.8275 292° West 426 490 40,000  Level Los Angeles Center
Wed 08:15:57 PM 34.2650 -116.9594 292° West 425 489 40,000  Level Los Angeles Center
Wed 08:16:59 PM 34.3103 -117.0922 292° West 425 489 40,000  Level Los Angeles Center
Wed 08:18:13 PM 34.3525 -117.2192 292° West 423 487 40,000  Level Los Angeles Center
Wed 08:19:16 PM 34.4069 -117.3836 292° West 423 487 40,000  Level Los Angeles Center
Wed 08:20:18 PM 34.4519 -117.5183 292° West 423 487 40,000  Level Los Angeles Center
Wed 08:21:20 PM 34.5031 -117.6767 291° West 425 489 40,000  Level Los Angeles Center
Wed 08:22:22 PM 34.5475 -117.8119 292° West 429 494 40,000  Level Los Angeles Center
Wed 08:23:36 PM 34.5908 -117.9450 292° West 428 493 40,000  Level Los Angeles Center
Wed 08:24:39 PM 34.6561 -118.1014 297° West 441 507 40,000  Level Los Angeles Center
Wed 08:25:41 PM 34.7350 -118.2150 310° West 438 504 40,000  Level Los Angeles Center
Wed 08:26:43 PM 34.8142 -118.3289 310° West 438 504 40,000  Level Los Angeles Center
Wed 08:27:45 PM 34.8919 -118.4439 310° West 439 505 40,000  Level Los Angeles Center
Wed 08:28:47 PM 34.9833 -118.5753 310° West 441 507 40,000  Level Los Angeles Center
Wed 08:29:49 PM 35.0481 -118.7008 302° West 439 505 40,000  Level Los Angeles Center
Wed 08:30:51 PM 35.0992 -118.8342 295° West 434 499 40,000  Level Los Angeles Center
Wed 08:32:05 PM 35.1536 -118.9664 297° West 437 503 40,000  Level Los Angeles Center
Wed 08:33:08 PM 35.2294 -119.1528 297° West 436 502 40,000  Level Los Angeles Center
Wed 08:34:10 PM 35.2831 -119.2881 296° West 439 505 40,000  Level Los Angeles Center
Wed 08:35:12 PM 35.3367 -119.4219 296° West 438 504 40,000  Level Los Angeles Center
Wed 08:36:14 PM 35.3889 -119.5556 296° West 437 503 40,000  Level Los Angeles Center
Wed 08:37:17 PM 35.4408 -119.6894 295° West 436 502 40,000  Level Los Angeles Center
Wed 08:38:19 PM 35.5019 -119.8475 295° West 431 496 40,000  Level Los Angeles Center
Wed 08:39:21 PM 35.5550 -119.9789 296° West 432 497 40,000  Level Los Angeles Center
Wed 08:40:23 PM 35.6064 -120.1136 295° West 439 505 40,000  Level Los Angeles Center
Wed 08:41:25 PM 35.6583 -120.2481 295° West 440 506 40,000  Level Los Angeles Center
Wed 08:42:27 PM 35.7208 -120.4122 295° West 447 514 40,000 -48 Level Los Angeles Center
Wed 08:43:29 PM 35.7786 -120.5092 306° West 441 507 39,900 -1,258 Descending Los Angeles Center
Wed 08:44:31 PM 35.8761 -120.6508 310° West 454 522 37,400 -1,645 Descending Los Angeles Center
Wed 08:45:33 PM 35.9569 -120.7744 309° West 463 533 36,500 -823 Descending Los Angeles Center
Wed 08:46:35 PM 36.0217 -120.8686 310° West 456 525 35,700 -1,008 Descending Los Angeles Center
Wed 08:47:38 PM 36.1372 -121.0383 310° West 463 533 34,400 -1,034 Descending Los Angeles Center
Wed 08:49:00 PM 36.2331 -121.1872 309° West 464 534 33,200 -1,500 Descending Oakland Center
Wed 08:50:02 PM 36.3319 -121.3331 310° West 458 527 30,800 -2,976 Descending Oakland Center
Wed 08:51:03 PM 36.4122 -121.4556 309° West 459 528 27,100 -3,122 Descending Oakland Center
Wed 08:52:05 PM 36.4919 -121.5786 309° West 458 527 24,400 -3,482 Descending Oakland Center
Wed 08:52:55 PM 36.5667 -121.6833 312° West 465 535 20,600 -2,509 Descending Northern Cal TRACON
Wed 08:53:55 PM 36.6333 -121.8000 305° West 508 585 19,800 -1,650 Descending Northern Cal TRACON
Wed 08:54:55 PM 36.7167 -121.9167 312° West 405 466 17,300 -1,700 Descending Northern Cal TRACON
Wed 08:55:55 PM 36.8000 -121.9833 327° Northwest 361 415 16,400 -1,150 Descending Northern Cal TRACON
Wed 08:56:55 PM 36.8833 -122.0000 351° North 332 382 15,000 -1,450 Descending Northern Cal TRACON
Wed 08:57:55 PM 36.9667 -122.0167 351° North 321 369 13,500 -1,617 Descending Northern Cal TRACON
Wed 08:58:50 PM 37.0500 -122.0500 342° North 316 364 11,900 -1,617 Descending Northern Cal TRACON
Wed 08:59:50 PM 37.1333 -122.0667 351° North 311 358 10,400 -1,400 Descending Northern Cal TRACON
Wed 09:00:50 PM 37.1833 -122.1500 307° West 294 338 9,100 -1,050 Descending Northern Cal TRACON
Wed 09:01:50 PM 37.2333 -122.2167 313° West 270 311 8,300 -555 Descending Northern Cal TRACON
Wed 09:02:49 PM 37.2833 -122.2833 313° West 253 291 8,000 -264 Descending Northern Cal TRACON
Wed 09:03:21 PM 37.3075 -122.2708 22° Northeast 242 278 7,900 -947 Descending Oakland Center
Wed 09:04:24 PM 37.3600 -122.1925 50° Northeast 244 281 6,500 -1,171 Descending Oakland Center
Wed 09:05:24 PM 37.4247 -122.1703 15° North 242 278 5,500 -793 Descending Oakland Center
Wed 09:06:25 PM 37.4881 -122.1656 North 234 269 4,900 -780 Descending Oakland Center
Wed 09:07:27 PM 37.5347 -122.1933 335° Northwest 212 244 3,900 -1,165 Descending Oakland Center
Wed 09:08:44 PM 37.5667 -122.2667 299° West 160 184 2,200 -1,225 Descending Northern Cal TRACON
Wed 09:09:49 PM 37.6000 -122.3167 310° West 140 161 1,000 -950 Descending Northern Cal TRACON
Wed 09:10:44 PM 37.6000 -122.3500 270° West 136 157 300 -404 Descending Northern Cal TRACON
Wed 09:11:33 PM 37.6167 -122.3775 307° West 150 173 300  Level Oakland Center
Wed 09:13:00 PM 37.6167 -122.3667 322° Northwest  Level FlightAware Approximate

Login

Don't have an account? Register now (free) for customized features, flight alerts, and more!